Time;durP1;ratioP1;P1;durP2;ratioP2;P2;SDS_P1;SDS_P2;PMS_P1;PMS_P2;Temp;Humidity;BMP_temperature;BMP_pressure;BME280_temperature;BME280_humidity;BME280_pressure;Samples;Min_cycle;Max_cycle;Signal;HPM_P1;HPM_P2
2023/08/30 00:01:19;;;;;;;0.50;0.50;;;;;;;-144.31;100.00;58022.63;5059637;28;20067;-63
2023/08/30 00:04:43;;;;;;;0.40;0.40;;;;;;;-144.31;100.00;58022.63;5063608;28;20044;-63
2023/08/30 00:08:07;;;;;;;0.50;0.50;;;;;;;-144.31;100.00;58022.63;5056784;28;20530;-64
2023/08/30 00:11:32;;;;;;;0.40;0.40;;;;;;;-144.31;100.00;58022.63;5055412;28;20446;-63
2023/08/30 00:15:02;;;;;;;0.50;0.50;;;;;;;-144.31;100.00;58022.63;5058069;28;20127;-63
2023/08/30 00:18:26;;;;;;;0.50;0.50;;;;;;;-144.31;100.00;58022.63;5056358;28;20041;-64
2023/08/30 00:21:50;;;;;;;0.40;0.40;;;;;;;-144.31;100.00;58022.63;5055624;28;20092;-63
2023/08/30 00:25:14;;;;;;;0.40;0.40;;;;;;;-144.31;100.00;58022.63;5056507;28;20390;-63
2023/08/30 00:28:38;;;;;;;0.40;0.40;;;;;;;-144.31;100.00;58022.63;5055097;28;20077;-63
2023/08/30 00:32:02;;;;;;;0.40;0.40;;;;;;;-144.31;100.00;58022.63;5066758;28;20840;-63
2023/08/30 00:35:25;;;;;;;0.40;0.40;;;;;;;-144.31;100.00;58022.63;5056652;28;20036;-62
2023/08/30 00:38:49;;;;;;;0.40;0.40;;;;;;;-144.31;100.00;58022.63;5059515;28;20040;-64
2023/08/30 00:42:13;;;;;;;0.40;0.40;;;;;;;-144.31;100.00;58022.63;5055771;28;20972;-64
2023/08/30 00:45:39;;;;;;;0.40;0.40;;;;;;;-144.31;100.00;58022.63;5056014;28;20135;-63
2023/08/30 00:49:04;;;;;;;0.50;0.50;;;;;;;-144.31;100.00;58022.63;5063492;28;20083;-62
2023/08/30 00:52:29;;;;;;;0.40;0.40;;;;;;;-144.31;100.00;58022.63;5057699;28;20478;-64
2023/08/30 00:55:53;;;;;;;0.40;0.40;;;;;;;-144.31;100.00;58022.63;5056204;28;20036;-63
2023/08/30 00:59:17;;;;;;;0.45;0.45;;;;;;;-144.31;100.00;58022.63;5053638;28;20039;-63
2023/08/30 01:02:41;;;;;;;0.40;0.40;;;;;;;-144.31;100.00;58022.63;5058328;28;20068;-63
2023/08/30 01:06:07;;;;;;;0.40;0.40;;;;;;;-144.31;100.00;58022.63;5060417;28;20407;-63
2023/08/30 01:09:31;;;;;;;0.45;0.45;;;;;;;-144.31;100.00;58022.63;5056756;28;20041;-63
2023/08/30 01:13:09;;;;;;;0.45;0.45;;;;;;;-144.31;100.00;58022.63;5054094;28;20072;-63
2023/08/30 01:16:37;;;;;;;0.50;0.50;;;;;;;-144.31;100.00;58022.63;5055346;28;20067;-63
2023/08/30 01:20:23;;;;;;;0.40;0.40;;;;;;;-144.31;100.00;58022.63;5054108;28;20036;-63
2023/08/30 01:23:58;;;;;;;0.50;0.50;;;;;;;-144.31;100.00;58022.63;5055097;28;20033;-63
2023/08/30 01:27:26;;;;;;;0.50;0.50;;;;;;;-144.31;100.00;58022.63;5054880;28;20033;-64
2023/08/30 01:30:57;;;;;;;0.50;0.50;;;;;;;-144.31;100.00;58022.63;5056604;28;20574;-63
2023/08/30 01:34:21;;;;;;;0.45;0.45;;;;;;;-144.31;100.00;58022.63;5055973;28;20078;-63
2023/08/30 01:37:46;;;;;;;0.40;0.40;;;;;;;-144.31;100.00;58022.63;5052251;28;20032;-65
2023/08/30 01:41:10;;;;;;;0.43;0.43;;;;;;;-144.31;100.00;58022.63;5055390;28;20051;-63
2023/08/30 01:44:35;;;;;;;0.50;0.50;;;;;;;-144.31;100.00;58022.63;5055150;28;20032;-64
2023/08/30 01:47:59;;;;;;;0.40;0.40;;;;;;;-144.31;100.00;58022.63;5047145;28;20110;-64
2023/08/30 01:51:25;;;;;;;0.50;0.50;;;;;;;-144.31;100.00;58022.63;5059072;28;20036;-63
2023/08/30 01:54:52;;;;;;;0.50;0.50;;;;;;;-144.31;100.00;58022.63;5063660;28;20127;-63
2023/08/30 01:58:16;;;;;;;0.40;0.40;;;;;;;-144.31;100.00;58022.63;5052607;28;20041;-64
2023/08/30 02:01:40;;;;;;;0.40;0.40;;;;;;;-144.31;100.00;58022.63;5063243;28;20174;-63
2023/08/30 02:05:04;;;;;;;0.50;0.50;;;;;;;-144.31;100.00;58022.63;5053561;28;20032;-63
2023/08/30 02:08:52;;;;;;;0.40;0.40;;;;;;;-144.31;100.00;58022.63;5035056;28;20110;-63
2023/08/30 02:12:22;;;;;;;0.50;0.50;;;;;;;-144.31;100.00;58022.63;5054658;28;20167;-63
2023/08/30 02:15:50;;;;;;;0.50;0.50;;;;;;;-144.31;100.00;58022.63;5051829;28;20045;-64
2023/08/30 02:19:20;;;;;;;0.50;0.50;;;;;;;-144.31;100.00;58022.63;5053405;28;20045;-62
2023/08/30 02:22:46;;;;;;;0.50;0.50;;;;;;;-144.31;100.00;58022.63;5062289;28;20041;-62
2023/08/30 02:26:10;;;;;;;0.40;0.40;;;;;;;-144.31;100.00;58022.63;5043915;28;20025;-63
2023/08/30 02:29:34;;;;;;;0.50;0.50;;;;;;;-144.31;100.00;58022.63;5054213;28;20046;-63
2023/08/30 02:32:56;;;;;;;0.40;0.40;;;;;;;-144.31;100.00;58022.63;5061958;28;20024;-62
2023/08/30 02:36:20;;;;;;;0.50;0.50;;;;;;;-144.31;100.00;58022.63;5054064;28;20041;-63
2023/08/30 02:39:44;;;;;;;0.40;0.40;;;;;;;-144.31;100.00;58022.63;5053012;28;20039;-63
2023/08/30 02:43:08;;;;;;;0.50;0.50;;;;;;;-144.31;100.00;58022.63;5053606;28;20357;-63
2023/08/30 02:46:32;;;;;;;0.50;0.50;;;;;;;-144.31;100.00;58022.63;5039333;28;20505;-63
2023/08/30 02:49:56;;;;;;;0.50;0.50;;;;;;;-144.31;100.00;58022.63;5054099;28;20040;-63
2023/08/30 02:53:20;;;;;;;0.50;0.50;;;;;;;-144.31;100.00;58022.63;5053049;28;20032;-63
2023/08/30 02:56:45;;;;;;;0.50;0.50;;;;;;;-144.31;100.00;58022.63;5054367;28;20033;-63
2023/08/30 03:00:09;;;;;;;0.40;0.40;;;;;;;-144.31;100.00;58022.63;5061108;28;21303;-63
2023/08/30 03:03:34;;;;;;;0.50;0.50;;;;;;;-144.31;100.00;58022.63;5052292;28;20039;-63
2023/08/30 03:06:59;;;;;;;0.50;0.50;;;;;;;-144.31;100.00;58022.63;5052319;28;20055;-63
2023/08/30 03:10:25;;;;;;;0.50;0.50;;;;;;;-144.31;100.00;58022.63;5061168;28;20489;-63
2023/08/30 03:13:50;;;;;;;0.50;0.50;;;;;;;-144.31;100.00;58022.63;5051461;28;20075;-63
2023/08/30 03:17:15;;;;;;;0.50;0.50;;;;;;;-144.31;100.00;58022.63;5055408;28;20041;-63
2023/08/30 03:20:38;;;;;;;0.50;0.50;;;;;;;-144.31;100.00;58022.63;5060575;28;20036;-63
2023/08/30 03:24:04;;;;;;;0.50;0.50;;;;;;;-144.31;100.00;58022.63;5070486;28;20037;-63
2023/08/30 03:27:28;;;;;;;0.50;0.50;;;;;;;-144.31;100.00;58022.63;5054203;28;20036;-63
2023/08/30 03:30:53;;;;;;;0.45;0.45;;;;;;;-144.31;100.00;58022.63;5063714;28;20060;-63
2023/08/30 03:34:17;;;;;;;0.43;0.43;;;;;;;-144.31;100.00;58022.63;5057060;28;20445;-64
2023/08/30 03:37:41;;;;;;;0.40;0.40;;;;;;;-144.31;100.00;58022.63;5063317;28;20048;-63
2023/08/30 03:41:05;;;;;;;0.50;0.50;;;;;;;-144.31;100.00;58022.63;5062968;28;20043;-63
2023/08/30 03:44:30;;;;;;;0.40;0.40;;;;;;;-144.31;100.00;58022.63;5056524;28;20036;-64
2023/08/30 03:47:54;;;;;;;0.40;0.40;;;;;;;-144.31;100.00;58022.63;5063420;28;20107;-64
2023/08/30 03:51:17;;;;;;;0.40;0.40;;;;;;;-144.31;100.00;58022.63;5059523;28;20068;-63
2023/08/30 03:54:41;;;;;;;0.50;0.50;;;;;;;-144.31;100.00;58022.63;5057523;28;20038;-64
2023/08/30 03:58:05;;;;;;;0.50;0.50;;;;;;;-144.31;100.00;58022.63;5063551;28;20033;-64
2023/08/30 04:01:29;;;;;;;0.50;0.50;;;;;;;-144.31;100.00;58022.63;5057679;28;20075;-64
2023/08/30 04:04:53;;;;;;;0.50;0.50;;;;;;;-144.31;100.00;58022.63;5057517;28;20032;-64
2023/08/30 04:08:17;;;;;;;0.50;0.50;;;;;;;-144.31;100.00;58022.63;5056558;28;20044;-64
2023/08/30 04:11:42;;;;;;;0.40;0.40;;;;;;;-144.31;100.00;58022.63;5055901;28;20537;-63
2023/08/30 04:15:06;;;;;;;0.47;0.47;;;;;;;-144.31;100.00;58022.63;5056508;28;20470;-63
2023/08/30 04:18:30;;;;;;;0.50;0.50;;;;;;;-144.31;100.00;58022.63;5061961;28;20501;-63
2023/08/30 04:21:55;;;;;;;0.45;0.45;;;;;;;-144.31;100.00;58022.63;5054742;28;20041;-62
2023/08/30 04:25:19;;;;;;;0.60;0.60;;;;;;;-144.31;100.00;58022.63;5054597;28;20047;-62
2023/08/30 04:28:43;;;;;;;0.45;0.45;;;;;;;-144.31;100.00;58022.63;5052792;28;20561;-62
2023/08/30 04:32:07;;;;;;;0.40;0.40;;;;;;;-144.31;100.00;58022.63;5055183;28;20032;-62
2023/08/30 04:35:31;;;;;;;0.40;0.40;;;;;;;-144.31;100.00;58022.63;5063389;28;20062;-63
2023/08/30 04:38:58;;;;;;;0.50;0.50;;;;;;;-144.31;100.00;58022.63;5053374;28;20051;-62
2023/08/30 04:42:22;;;;;;;0.40;0.40;;;;;;;-144.31;100.00;58022.63;5054877;28;20029;-63
2023/08/30 04:45:48;;;;;;;0.40;0.40;;;;;;;-144.31;100.00;58022.63;5056570;28;20037;-64
2023/08/30 04:49:12;;;;;;;0.50;0.50;;;;;;;-144.31;100.00;58022.63;5053956;28;20355;-63
2023/08/30 04:52:36;;;;;;;0.40;0.40;;;;;;;-144.31;100.00;58022.63;5055521;28;20071;-63
2023/08/30 04:55:59;;;;;;;0.40;0.40;;;;;;;-144.31;100.00;58022.63;5060364;28;20044;-62
2023/08/30 04:59:24;;;;;;;0.40;0.40;;;;;;;-144.31;100.00;58022.63;5057198;28;20067;-62
2023/08/30 05:02:48;;;;;;;0.40;0.40;;;;;;;-144.31;100.00;58022.63;5054999;28;20037;-62
2023/08/30 05:06:16;;;;;;;0.50;0.50;;;;;;;-144.31;100.00;58022.63;5061598;28;20123;-62
2023/08/30 05:09:43;;;;;;;0.40;0.40;;;;;;;-144.31;100.00;58022.63;5055082;28;20068;-63
2023/08/30 05:13:07;;;;;;;0.40;0.40;;;;;;;-144.31;100.00;58022.63;5053908;28;20033;-63
2023/08/30 05:16:31;;;;;;;0.40;0.40;;;;;;;-144.31;100.00;58022.63;5061077;28;20043;-62
2023/08/30 05:19:55;;;;;;;0.40;0.40;;;;;;;-144.31;100.00;58022.63;5056370;28;20043;-63
2023/08/30 05:23:19;;;;;;;0.40;0.40;;;;;;;-144.31;100.00;58022.63;5052539;28;20082;-63
2023/08/30 05:26:43;;;;;;;0.40;0.40;;;;;;;-144.31;100.00;58022.63;5059562;28;20140;-63
2023/08/30 05:30:07;;;;;;;0.40;0.40;;;;;;;-144.31;100.00;58022.63;5071509;28;20056;-62
2023/08/30 05:33:32;;;;;;;0.40;0.40;;;;;;;-144.31;100.00;58022.63;5057480;28;20032;-62
2023/08/30 05:37:05;;;;;;;0.40;0.40;;;;;;;-144.31;100.00;58022.63;5061151;28;20102;-63
2023/08/30 05:40:49;;;;;;;0.40;0.40;;;;;;;-144.31;100.00;58022.63;5055737;28;20041;-67
2023/08/30 05:44:13;;;;;;;0.38;0.38;;;;;;;-144.31;100.00;58022.63;5054397;28;20036;-65
2023/08/30 05:47:37;;;;;;;0.40;0.40;;;;;;;-144.31;100.00;58022.63;5058945;28;20040;-65
2023/08/30 05:51:01;;;;;;;0.40;0.40;;;;;;;-144.31;100.00;58022.63;5052876;28;20044;-63
2023/08/30 05:54:29;;;;;;;0.40;0.40;;;;;;;-144.31;100.00;58022.63;5053535;28;20837;-63
2023/08/30 05:57:53;;;;;;;0.40;0.40;;;;;;;-144.31;100.00;58022.63;5054035;28;20506;-62
2023/08/30 06:01:18;;;;;;;0.40;0.40;;;;;;;-144.31;100.00;58022.63;5052666;28;20041;-63
2023/08/30 06:04:42;;;;;;;0.40;0.40;;;;;;;-144.31;100.00;58022.63;5054298;28;20067;-62
2023/08/30 06:08:07;;;;;;;0.38;0.38;;;;;;;-144.31;100.00;58022.63;5053812;28;20072;-63
2023/08/30 06:11:32;;;;;;;0.40;0.40;;;;;;;-144.31;100.00;58022.63;5056309;28;20044;-63
2023/08/30 06:14:56;;;;;;;0.30;0.30;;;;;;;-144.31;100.00;58022.63;5062051;28;20040;-62
2023/08/30 06:18:20;;;;;;;0.30;0.30;;;;;;;-144.31;100.00;58022.63;5052884;28;20127;-62
2023/08/30 06:21:44;;;;;;;0.40;0.40;;;;;;;-144.31;100.00;58022.63;5053207;28;20046;-63
2023/08/30 06:25:09;;;;;;;0.30;0.30;;;;;;;-144.31;100.00;58022.63;5054316;28;20051;-63
2023/08/30 06:28:35;;;;;;;0.40;0.40;;;;;;;-144.31;100.00;58022.63;5053104;28;20120;-63
2023/08/30 06:31:58;;;;;;;0.30;0.30;;;;;;;-144.31;100.00;58022.63;5052524;28;20391;-63
2023/08/30 06:35:23;;;;;;;0.32;0.32;;;;;;;-144.31;100.00;58022.63;5054294;28;20120;-63
2023/08/30 06:38:47;;;;;;;0.30;0.30;;;;;;;-144.31;100.00;58022.63;5054124;28;20055;-63
2023/08/30 06:42:11;;;;;;;0.30;0.30;;;;;;;-144.31;100.00;58022.63;5059386;28;20040;-64
2023/08/30 06:45:40;;;;;;;0.30;0.30;;;;;;;-144.31;100.00;58022.63;5041430;28;20036;-63
2023/08/30 06:49:05;;;;;;;0.30;0.30;;;;;;;-144.31;100.00;58022.63;5060582;28;20767;-63
2023/08/30 06:52:29;;;;;;;0.30;0.30;;;;;;;-144.31;100.00;58022.63;5061746;28;20405;-63
2023/08/30 06:55:56;;;;;;;0.30;0.30;;;;;;;-144.31;100.00;58022.63;5067463;28;20033;-63
2023/08/30 06:59:20;;;;;;;0.30;0.30;;;;;;;-144.31;100.00;58022.63;5060268;28;20044;-63
2023/08/30 07:02:45;;;;;;;0.30;0.30;;;;;;;-144.31;100.00;58022.63;5058183;28;20120;-62
2023/08/30 07:06:12;;;;;;;0.30;0.30;;;;;;;-144.31;100.00;58022.63;5060112;28;20044;-62
2023/08/30 07:09:36;;;;;;;0.30;0.30;;;;;;;-144.31;100.00;58022.63;5059490;28;20044;-63
2023/08/30 07:13:00;;;;;;;0.30;0.30;;;;;;;-144.31;100.00;58022.63;5059897;28;20037;-63
2023/08/30 07:16:24;;;;;;;0.30;0.30;;;;;;;-144.31;100.00;58022.63;5060584;28;20085;-63
2023/08/30 07:19:49;;;;;;;0.30;0.30;;;;;;;-144.31;100.00;58022.63;5060416;28;20450;-63
2023/08/30 07:23:13;;;;;;;0.20;0.20;;;;;;;-144.31;100.00;58022.63;5060566;28;20413;-63
2023/08/30 07:26:37;;;;;;;0.30;0.30;;;;;;;-144.31;100.00;58022.63;5060685;28;20040;-62
2023/08/30 07:30:04;;;;;;;0.20;0.20;;;;;;;-144.31;100.00;58022.63;5057258;28;20032;-63
2023/08/30 07:33:28;;;;;;;0.20;0.20;;;;;;;-144.31;100.00;58022.63;5059060;28;20080;-63
2023/08/30 07:36:54;;;;;;;0.20;0.20;;;;;;;-144.31;100.00;58022.63;5059194;28;20041;-62
2023/08/30 07:40:20;;;;;;;0.20;0.20;;;;;;;-144.31;100.00;58022.63;5060500;28;20144;-63
2023/08/30 07:43:44;;;;;;;0.20;0.20;;;;;;;-144.31;100.00;58022.63;5065084;28;20484;-62
2023/08/30 07:47:08;;;;;;;0.20;0.20;;;;;;;-144.31;100.00;58022.63;5058644;28;20033;-63
2023/08/30 07:50:32;;;;;;;0.20;0.20;;;;;;;-144.31;100.00;58022.63;5059348;28;20097;-62
2023/08/30 07:53:58;;;;;;;0.20;0.20;;;;;;;-144.31;100.00;58022.63;5062979;28;20267;-63
2023/08/30 07:57:22;;;;;;;0.20;0.20;;;;;;;-144.31;100.00;58022.63;5063029;28;20108;-62
2023/08/30 08:00:50;;;;;;;0.20;0.20;;;;;;;-144.31;100.00;58022.63;5059921;28;20032;-62
2023/08/30 08:04:14;;;;;;;0.20;0.20;;;;;;;-144.31;100.00;58022.63;5056690;28;20061;-62
2023/08/30 08:07:39;;;;;;;0.20;0.20;;;;;;;-144.31;100.00;58022.63;5054965;28;20111;-61
2023/08/30 08:11:03;;;;;;;0.20;0.20;;;;;;;-144.31;100.00;58022.63;5056009;28;20056;-62
2023/08/30 08:14:27;;;;;;;0.20;0.20;;;;;;;-144.31;100.00;58022.63;5056310;28;20032;-62
2023/08/30 08:17:51;;;;;;;0.20;0.20;;;;;;;-144.31;100.00;58022.63;5057669;28;20561;-61
2023/08/30 08:21:15;;;;;;;0.20;0.20;;;;;;;-144.31;100.00;58022.63;5057100;28;20797;-62
2023/08/30 08:24:39;;;;;;;0.20;0.20;;;;;;;-144.31;100.00;58022.63;5059263;28;20044;-62
2023/08/30 08:28:03;;;;;;;0.20;0.20;;;;;;;-144.31;100.00;58022.63;5058093;28;20037;-62
2023/08/30 08:31:27;;;;;;;0.20;0.20;;;;;;;-144.31;100.00;58022.63;5054370;28;20095;-62
2023/08/30 08:35:05;;;;;;;0.10;0.10;;;;;;;-144.31;100.00;58022.63;5057604;28;20082;-62
2023/08/30 08:38:29;;;;;;;0.20;0.20;;;;;;;-144.31;100.00;58022.63;5055682;28;20066;-62
2023/08/30 08:42:01;;;;;;;0.10;0.10;;;;;;;-144.31;100.00;58022.63;5056375;28;20064;-63
2023/08/30 08:45:29;;;;;;;0.20;0.20;;;;;;;-144.31;100.00;58022.63;5056207;28;20041;-62
2023/08/30 08:48:55;;;;;;;0.20;0.20;;;;;;;-144.31;100.00;58022.63;5055758;28;20055;-62
2023/08/30 08:52:20;;;;;;;0.10;0.10;;;;;;;-144.31;100.00;58022.63;5055986;28;20044;-62
2023/08/30 08:55:46;;;;;;;0.20;0.20;;;;;;;-144.31;100.00;58022.63;5063829;28;20072;-62
2023/08/30 08:59:09;;;;;;;;;;;;;;;-144.31;100.00;58022.63;5054162;28;20087;-62
2023/08/30 09:02:34;;;;;;;0.20;0.20;;;;;;;-144.31;100.00;58022.63;5052218;28;19922;-61
2023/08/30 09:05:58;;;;;;;0.20;0.20;;;;;;;-144.31;100.00;58022.63;5062397;28;20598;-61
2023/08/30 09:09:23;;;;;;;0.20;0.20;;;;;;;-144.31;100.00;58022.63;5057740;28;20036;-62
2023/08/30 09:12:47;;;;;;;0.10;0.10;;;;;;;-144.31;100.00;58022.63;5051370;28;20129;-62
2023/08/30 09:16:15;;;;;;;0.10;0.10;;;;;;;-144.31;100.00;58022.63;5054655;28;20724;-63
2023/08/30 09:19:39;;;;;;;0.10;0.10;;;;;;;-144.31;100.00;58022.63;5053977;28;20116;-63
2023/08/30 09:23:03;;;;;;;0.10;0.10;;;;;;;-144.31;100.00;58022.63;5056444;28;20086;-62
2023/08/30 09:26:33;;;;;;;0.10;0.10;;;;;;;-144.31;100.00;58022.63;5054937;28;20398;-62
2023/08/30 09:30:07;;;;;;;0.20;0.20;;;;;;;-144.31;100.00;58022.63;5056784;28;20060;-63
2023/08/30 09:33:36;;;;;;;0.10;0.10;;;;;;;-144.31;100.00;58022.63;5054923;28;20141;-63
2023/08/30 09:37:01;;;;;;;0.10;0.10;;;;;;;-144.31;100.00;58022.63;5057511;28;20036;-63
2023/08/30 09:40:25;;;;;;;0.10;0.10;;;;;;;-144.31;100.00;58022.63;5055748;28;20044;-63
2023/08/30 09:43:49;;;;;;;0.10;0.10;;;;;;;-144.31;100.00;58022.63;5055606;28;20025;-63
2023/08/30 09:47:15;;;;;;;0.20;0.20;;;;;;;-144.31;100.00;58022.63;5061603;28;20379;-63
2023/08/30 09:50:44;;;;;;;0.10;0.10;;;;;;;-144.31;100.00;58022.63;5057275;28;20082;-62
2023/08/30 09:54:13;;;;;;;0.10;0.10;;;;;;;-144.31;100.00;58022.63;5056534;28;20058;-62
2023/08/30 09:57:39;;;;;;;0.10;0.10;;;;;;;-144.31;100.00;58022.63;5054640;28;20425;-63
2023/08/30 10:01:04;;;;;;;0.10;0.10;;;;;;;-144.31;100.00;58022.63;5058342;28;20466;-62
2023/08/30 10:04:29;;;;;;;0.10;0.10;;;;;;;-144.31;100.00;58022.63;5053843;28;20041;-61
2023/08/30 10:07:54;;;;;;;0.13;0.13;;;;;;;-144.31;100.00;58022.63;5051918;28;20313;-61
2023/08/30 10:11:18;;;;;;;0.10;0.10;;;;;;;-144.31;100.00;58022.63;5052107;28;20091;-61
2023/08/30 10:14:43;;;;;;;0.10;0.10;;;;;;;-144.31;100.00;58022.63;5055258;28;20061;-61
2023/08/30 10:18:09;;;;;;;0.10;0.10;;;;;;;-144.31;100.00;58022.63;5056576;28;20112;-62
2023/08/30 10:21:34;;;;;;;0.10;0.10;;;;;;;-144.31;100.00;58022.63;5055267;28;20454;-62
2023/08/30 10:25:04;;;;;;;;;;;;;;;-144.31;100.00;58022.63;5056756;28;20048;-62
2023/08/30 10:28:30;;;;;;;0.10;0.10;;;;;;;-144.31;100.00;58022.63;5056419;28;19963;-62
2023/08/30 10:31:54;;;;;;;0.10;0.10;;;;;;;-144.31;100.00;58022.63;5051936;28;20044;-62
2023/08/30 10:35:19;;;;;;;0.10;0.10;;;;;;;-144.31;100.00;58022.63;5054024;28;20482;-62
2023/08/30 10:38:57;;;;;;;0.10;0.10;;;;;;;-144.31;100.00;58022.63;5051113;28;20047;-63
2023/08/30 10:42:25;;;;;;;0.10;0.10;;;;;;;-144.31;100.00;58022.63;5060202;28;20258;-63
2023/08/30 10:45:58;;;;;;;0.10;0.10;;;;;;;-144.31;100.00;58022.63;5052723;28;20394;-62
2023/08/30 10:49:39;;;;;;;0.10;0.10;;;;;;;-144.31;100.00;58022.63;5054724;28;20128;-62
2023/08/30 10:53:05;;;;;;;0.10;0.10;;;;;;;-144.31;100.00;58022.63;5055598;28;20045;-62
2023/08/30 10:56:29;;;;;;;0.10;0.10;;;;;;;-144.31;100.00;58022.63;5068202;28;20087;-62
2023/08/30 11:00:07;;;;;;;0.10;0.10;;;;;;;-144.31;100.00;58022.63;5059575;28;20381;-62
2023/08/30 11:03:31;;;;;;;0.10;0.10;;;;;;;-144.31;100.00;58022.63;5055340;28;20021;-62
2023/08/30 11:06:56;;;;;;;0.10;0.10;;;;;;;-144.31;100.00;58022.63;5052281;28;20127;-62
2023/08/30 11:10:22;;;;;;;0.10;0.10;;;;;;;-144.31;100.00;58022.63;5053434;28;20489;-62
2023/08/30 11:13:46;;;;;;;0.10;0.10;;;;;;;-144.31;100.00;58022.63;5052027;28;20033;-62
2023/08/30 11:17:10;;;;;;;0.10;0.10;;;;;;;-144.31;100.00;58022.63;5069549;28;20040;-61
2023/08/30 11:20:34;;;;;;;0.10;0.10;;;;;;;-144.31;100.00;58022.63;5054022;28;20037;-62
2023/08/30 11:24:00;;;;;;;0.10;0.10;;;;;;;-144.31;100.00;58022.63;5052402;28;20033;-62
2023/08/30 11:27:24;;;;;;;0.10;0.10;;;;;;;-144.31;100.00;58022.63;5057003;28;20044;-62
2023/08/30 11:30:48;;;;;;;0.10;0.10;;;;;;;-144.31;100.00;58022.63;5052980;28;20120;-62
2023/08/30 11:34:19;;;;;;;0.10;0.10;;;;;;;-144.31;100.00;58022.63;5055758;28;20044;-62
2023/08/30 11:37:44;;;;;;;0.10;0.10;;;;;;;-144.31;100.00;58022.63;5052963;28;20124;-63
2023/08/30 11:41:10;;;;;;;0.00;0.00;;;;;;;-144.31;100.00;58022.63;5059227;28;20032;-62
2023/08/30 11:44:34;;;;;;;0.10;0.10;;;;;;;-144.31;100.00;58022.63;5040021;28;20047;-63
2023/08/30 11:47:59;;;;;;;0.10;0.10;;;;;;;-144.31;100.00;58022.63;5061393;28;20037;-63
2023/08/30 11:51:23;;;;;;;0.00;0.00;;;;;;;-144.31;100.00;58022.63;5060041;28;20428;-63
2023/08/30 11:54:47;;;;;;;0.00;0.00;;;;;;;-144.31;100.00;58022.63;5054164;28;20049;-63
2023/08/30 11:58:11;;;;;;;0.00;0.00;;;;;;;-144.31;100.00;58022.63;5062471;28;20699;-63
2023/08/30 12:01:37;;;;;;;0.00;0.00;;;;;;;-144.31;100.00;58022.63;5059104;28;20327;-61
2023/08/30 12:05:10;;;;;;;0.00;0.00;;;;;;;-144.31;100.00;58022.63;5056544;28;20036;-60
2023/08/30 12:08:35;;;;;;;0.00;0.00;;;;;;;-144.31;100.00;58022.63;5054892;28;20135;-63
2023/08/30 12:12:11;;;;;;;;;;;;;;;-144.31;100.00;58022.63;5057425;28;20098;-63
2023/08/30 12:15:39;;;;;;;0.00;0.00;;;;;;;-144.31;100.00;58022.63;5057922;28;19919;-64
2023/08/30 12:19:10;;;;;;;0.00;0.00;;;;;;;-144.31;100.00;58022.63;5048518;28;20118;-64
2023/08/30 12:22:38;;;;;;;0.00;0.00;;;;;;;-144.31;100.00;58022.63;5053090;28;20120;-63
2023/08/30 12:26:20;;;;;;;0.00;0.00;;;;;;;-144.31;100.00;58022.63;5056888;28;20741;-63
2023/08/30 12:29:44;;;;;;;0.00;0.00;;;;;;;-144.31;100.00;58022.63;5050984;28;20691;-63
2023/08/30 12:33:08;;;;;;;0.00;0.00;;;;;;;-144.31;100.00;58022.63;5053216;28;20817;-63
2023/08/30 12:36:32;;;;;;;0.00;0.00;;;;;;;-144.31;100.00;58022.63;5050264;28;20416;-63
2023/08/30 12:39:56;;;;;;;0.00;0.00;;;;;;;-144.31;100.00;58022.63;5051070;28;20029;-64
2023/08/30 12:43:21;;;;;;;0.00;0.00;;;;;;;-144.31;100.00;58022.63;5057267;28;20406;-61
2023/08/30 12:46:45;;;;;;;0.00;0.00;;;;;;;-144.31;100.00;58022.63;5055491;28;20041;-61
2023/08/30 12:50:09;;;;;;;0.10;0.10;;;;;;;-144.31;100.00;58022.63;5055226;28;20128;-62
2023/08/30 12:53:33;;;;;;;0.10;0.10;;;;;;;-144.31;100.00;58022.63;5051948;28;20453;-62
2023/08/30 12:56:57;;;;;;;0.10;0.10;;;;;;;-144.31;100.00;58022.63;5049637;28;20033;-62
2023/08/30 13:00:22;;;;;;;0.10;0.10;;;;;;;-144.31;100.00;58022.63;5049848;28;20036;-65
2023/08/30 13:03:46;;;;;;;0.10;0.10;;;;;;;-144.31;100.00;58022.63;5055267;28;20064;-61
2023/08/30 13:07:10;;;;;;;0.10;0.10;;;;;;;-144.31;100.00;58022.63;5055458;28;20832;-61
2023/08/30 13:10:34;;;;;;;0.10;0.10;;;;;;;-144.31;100.00;58022.63;5057485;28;20040;-62
2023/08/30 13:13:58;;;;;;;0.10;0.10;;;;;;;-144.31;100.00;58022.63;5050299;28;20470;-61
2023/08/30 13:17:23;;;;;;;0.10;0.10;;;;;;;-144.31;100.00;58022.63;5049456;28;20082;-61
2023/08/30 13:20:46;;;;;;;0.10;0.10;;;;;;;-144.31;100.00;58022.63;5049716;28;20355;-61
2023/08/30 13:24:10;;;;;;;0.20;0.20;;;;;;;-144.31;100.00;58022.63;5046704;28;20037;-61
2023/08/30 13:27:35;;;;;;;0.20;0.20;;;;;;;-144.31;100.00;58022.63;5054529;28;20039;-62
2023/08/30 13:30:59;;;;;;;0.20;0.20;;;;;;;-144.31;100.00;58022.63;5055442;28;20029;-62
2023/08/30 13:34:22;;;;;;;0.20;0.20;;;;;;;-144.31;100.00;58022.63;5048968;28;20083;-62
2023/08/30 13:37:46;;;;;;;0.20;0.20;;;;;;;-144.31;100.00;58022.63;5049195;28;20029;-62
2023/08/30 13:41:10;;;;;;;0.20;0.20;;;;;;;-144.31;100.00;58022.63;5049064;28;20131;-62
2023/08/30 13:44:37;;;;;;;0.10;0.10;;;;;;;-144.31;100.00;58022.63;5047007;28;20111;-62
2023/08/30 13:48:02;;;;;;;0.20;0.20;;;;;;;-144.31;100.00;58022.63;5056289;28;20103;-62
2023/08/30 13:51:26;;;;;;;0.10;0.10;;;;;;;-144.31;100.00;58022.63;5056189;28;20033;-62
2023/08/30 13:54:51;;;;;;;0.10;0.10;;;;;;;-144.31;100.00;58022.63;5054037;28;20041;-62
2023/08/30 13:58:16;;;;;;;0.20;0.20;;;;;;;-144.31;100.00;58022.63;5046821;28;20037;-62
2023/08/30 14:01:40;;;;;;;0.10;0.10;;;;;;;-144.31;100.00;58022.63;5046009;28;20052;-63
2023/08/30 14:05:04;;;;;;;0.10;0.10;;;;;;;-144.31;100.00;58022.63;5052704;28;20164;-62
2023/08/30 14:08:28;;;;;;;0.10;0.10;;;;;;;-144.31;100.00;58022.63;5046748;28;20029;-62
2023/08/30 14:11:54;;;;;;;0.03;0.03;;;;;;;-144.31;100.00;58022.63;5052688;28;20044;-63
2023/08/30 14:15:18;;;;;;;0.00;0.00;;;;;;;-144.31;100.00;58022.63;5055666;28;20777;-62
2023/08/30 14:18:42;;;;;;;0.00;0.00;;;;;;;-144.31;100.00;58022.63;5049025;28;20039;-63
2023/08/30 14:22:07;;;;;;;0.00;0.00;;;;;;;-144.31;100.00;58022.63;5048974;28;20055;-62
2023/08/30 14:25:31;;;;;;;0.00;0.00;;;;;;;-144.31;100.00;58022.63;5049301;28;20507;-63
2023/08/30 14:28:55;;;;;;;0.00;0.00;;;;;;;-144.31;100.00;58022.63;5049335;28;20079;-63
2023/08/30 14:32:19;;;;;;;0.00;0.00;;;;;;;-144.31;100.00;58022.63;5053183;28;20040;-63
2023/08/30 14:35:43;;;;;;;0.00;0.00;;;;;;;-144.31;100.00;58022.63;5051996;28;20048;-63
2023/08/30 14:39:07;;;;;;;0.00;0.00;;;;;;;-144.31;100.00;58022.63;5056396;28;20066;-63
2023/08/30 14:42:32;;;;;;;0.00;0.00;;;;;;;-144.31;100.00;58022.63;5050496;28;20735;-61
2023/08/30 14:46:03;;;;;;;0.00;0.00;;;;;;;-144.31;100.00;58022.63;5048977;28;20037;-62
2023/08/30 14:49:27;;;;;;;0.00;0.00;;;;;;;-144.31;100.00;58022.63;5046650;28;20036;-62
2023/08/30 14:52:54;;;;;;;0.10;0.10;;;;;;;-144.31;100.00;58022.63;5048958;28;20108;-62
2023/08/30 14:56:18;;;;;;;0.10;0.10;;;;;;;-144.31;100.00;58022.63;5057051;28;20042;-62
2023/08/30 14:59:42;;;;;;;0.10;0.10;;;;;;;-144.31;100.00;58022.63;5051898;28;20143;-63
2023/08/30 15:03:06;;;;;;;0.10;0.10;;;;;;;-144.31;100.00;58022.63;5048128;28;20025;-62
2023/08/30 15:06:30;;;;;;;0.10;0.10;;;;;;;-144.31;100.00;58022.63;5047403;28;20130;-62
2023/08/30 15:09:54;;;;;;;0.10;0.10;;;;;;;-144.31;100.00;58022.63;5045297;28;20548;-62
2023/08/30 15:13:19;;;;;;;0.10;0.10;;;;;;;-144.31;100.00;58022.63;5048424;28;20028;-62
2023/08/30 15:16:43;;;;;;;0.10;0.10;;;;;;;-144.31;100.00;58022.63;5061836;28;20074;-62
2023/08/30 15:20:07;;;;;;;0.10;0.10;;;;;;;-144.31;100.00;58022.63;5060294;28;20480;-62
2023/08/30 15:23:32;;;;;;;0.10;0.10;;;;;;;-144.31;100.00;58022.63;5060352;28;20066;-62
2023/08/30 15:26:56;;;;;;;0.10;0.10;;;;;;;-144.31;100.00;58022.63;5047488;28;20040;-62
2023/08/30 15:30:20;;;;;;;0.10;0.10;;;;;;;-144.31;100.00;58022.63;5058343;28;20124;-61
2023/08/30 15:33:44;;;;;;;0.10;0.10;;;;;;;-144.31;100.00;58022.63;5056057;28;20442;-61